sensor_id;sensor_type;location;lat;lon;timestamp;P1;durP1;ratioP1;P2;durP2;ratioP2
43819;SDS011;67762;52.476;6.046;2023-08-31T00:02:06;1999.90;;;999.90;;
43819;SDS011;67762;52.476;6.046;2023-08-31T00:04:32;1999.90;;;999.90;;
43819;SDS011;67762;52.476;6.046;2023-08-31T00:06:58;1999.90;;;999.90;;
43819;SDS011;67762;52.476;6.046;2023-08-31T00:09:24;1999.90;;;999.90;;
43819;SDS011;67762;52.476;6.046;2023-08-31T00:11:50;1999.90;;;999.90;;
43819;SDS011;67762;52.476;6.046;2023-08-31T00:14:16;1999.90;;;999.90;;
43819;SDS011;67762;52.476;6.046;2023-08-31T00:16:42;1999.90;;;999.90;;
43819;SDS011;67762;52.476;6.046;2023-08-31T00:19:11;1999.90;;;999.90;;
43819;SDS011;67762;52.476;6.046;2023-08-31T00:21:37;1999.90;;;999.90;;
43819;SDS011;67762;52.476;6.046;2023-08-31T00:24:03;1999.90;;;999.90;;
43819;SDS011;67762;52.476;6.046;2023-08-31T00:26:29;1999.90;;;999.90;;
43819;SDS011;67762;52.476;6.046;2023-08-31T00:28:57;1999.90;;;999.90;;
43819;SDS011;67762;52.476;6.046;2023-08-31T00:31:23;1999.90;;;999.90;;
43819;SDS011;67762;52.476;6.046;2023-08-31T00:33:49;1999.90;;;999.90;;
43819;SDS011;67762;52.476;6.046;2023-08-31T00:36:17;1999.90;;;999.90;;
43819;SDS011;67762;52.476;6.046;2023-08-31T00:38:43;1999.90;;;999.90;;
43819;SDS011;67762;52.476;6.046;2023-08-31T00:41:10;1999.90;;;999.90;;
43819;SDS011;67762;52.476;6.046;2023-08-31T00:43:36;1999.90;;;999.90;;
43819;SDS011;67762;52.476;6.046;2023-08-31T00:46:01;1999.90;;;999.90;;
43819;SDS011;67762;52.476;6.046;2023-08-31T00:48:27;1999.90;;;999.90;;
43819;SDS011;67762;52.476;6.046;2023-08-31T00:50:53;1999.90;;;999.90;;
43819;SDS011;67762;52.476;6.046;2023-08-31T00:53:19;1999.90;;;999.90;;
43819;SDS011;67762;52.476;6.046;2023-08-31T00:55:45;1999.90;;;999.90;;
43819;SDS011;67762;52.476;6.046;2023-08-31T00:58:12;1999.90;;;999.90;;
43819;SDS011;67762;52.476;6.046;2023-08-31T01:00:54;1999.90;;;999.90;;
43819;SDS011;67762;52.476;6.046;2023-08-31T01:03:50;1999.90;;;999.90;;
43819;SDS011;67762;52.476;6.046;2023-08-31T01:12:44;1999.90;;;999.90;;
43819;SDS011;67762;52.476;6.046;2023-08-31T01:15:12;1999.90;;;999.90;;
43819;SDS011;67762;52.476;6.046;2023-08-31T01:17:48;1999.90;;;999.90;;
43819;SDS011;67762;52.476;6.046;2023-08-31T01:20:40;1999.90;;;999.90;;
43819;SDS011;67762;52.476;6.046;2023-08-31T01:23:07;1999.90;;;999.90;;
43819;SDS011;67762;52.476;6.046;2023-08-31T01:25:35;1999.90;;;999.90;;
43819;SDS011;67762;52.476;6.046;2023-08-31T01:28:02;1999.90;;;999.90;;
43819;SDS011;67762;52.476;6.046;2023-08-31T01:30:29;1999.90;;;999.90;;
43819;SDS011;67762;52.476;6.046;2023-08-31T01:32:56;1999.90;;;999.90;;
43819;SDS011;67762;52.476;6.046;2023-08-31T01:35:22;1999.90;;;999.90;;
43819;SDS011;67762;52.476;6.046;2023-08-31T01:43:08;1999.90;;;999.90;;
43819;SDS011;67762;52.476;6.046;2023-08-31T01:45:36;1999.90;;;999.90;;
43819;SDS011;67762;52.476;6.046;2023-08-31T01:48:06;1999.90;;;999.90;;
43819;SDS011;67762;52.476;6.046;2023-08-31T01:50:33;1999.90;;;999.90;;
43819;SDS011;67762;52.476;6.046;2023-08-31T01:52:59;1999.90;;;999.90;;
43819;SDS011;67762;52.476;6.046;2023-08-31T01:55:25;1999.90;;;999.90;;
43819;SDS011;67762;52.476;6.046;2023-08-31T01:57:51;1999.90;;;999.90;;
43819;SDS011;67762;52.476;6.046;2023-08-31T02:00:20;1999.90;;;999.90;;
43819;SDS011;67762;52.476;6.046;2023-08-31T02:02:47;1999.90;;;999.90;;
43819;SDS011;67762;52.476;6.046;2023-08-31T02:05:13;1999.90;;;999.90;;
43819;SDS011;67762;52.476;6.046;2023-08-31T02:07:38;1999.90;;;999.90;;
43819;SDS011;67762;52.476;6.046;2023-08-31T02:10:05;1999.90;;;999.90;;
43819;SDS011;67762;52.476;6.046;2023-08-31T02:12:32;1999.90;;;999.90;;
43819;SDS011;67762;52.476;6.046;2023-08-31T02:14:58;1999.90;;;999.90;;
43819;SDS011;67762;52.476;6.046;2023-08-31T02:17:24;1999.90;;;999.90;;
43819;SDS011;67762;52.476;6.046;2023-08-31T02:19:50;1999.90;;;999.90;;
43819;SDS011;67762;52.476;6.046;2023-08-31T02:22:16;1999.90;;;999.90;;
43819;SDS011;67762;52.476;6.046;2023-08-31T02:24:42;1999.90;;;999.90;;
43819;SDS011;67762;52.476;6.046;2023-08-31T02:27:07;1999.90;;;999.90;;
43819;SDS011;67762;52.476;6.046;2023-08-31T02:29:33;1999.90;;;999.90;;
43819;SDS011;67762;52.476;6.046;2023-08-31T02:31:59;1999.90;;;999.90;;
43819;SDS011;67762;52.476;6.046;2023-08-31T02:34:25;1999.90;;;999.90;;
43819;SDS011;67762;52.476;6.046;2023-08-31T02:36:50;1999.90;;;999.90;;
43819;SDS011;67762;52.476;6.046;2023-08-31T02:39:16;1999.90;;;999.90;;
43819;SDS011;67762;52.476;6.046;2023-08-31T02:41:42;1999.90;;;999.90;;
43819;SDS011;67762;52.476;6.046;2023-08-31T02:44:07;1999.90;;;999.90;;
43819;SDS011;67762;52.476;6.046;2023-08-31T02:46:33;1999.90;;;999.90;;
43819;SDS011;67762;52.476;6.046;2023-08-31T02:48:58;1999.90;;;999.90;;
43819;SDS011;67762;52.476;6.046;2023-08-31T02:51:24;1999.90;;;999.90;;
43819;SDS011;67762;52.476;6.046;2023-08-31T02:53:50;1999.90;;;999.90;;
43819;SDS011;67762;52.476;6.046;2023-08-31T02:56:16;1999.90;;;999.90;;
43819;SDS011;67762;52.476;6.046;2023-08-31T02:58:41;1999.90;;;999.90;;
43819;SDS011;67762;52.476;6.046;2023-08-31T03:01:10;1999.90;;;999.90;;
43819;SDS011;67762;52.476;6.046;2023-08-31T03:03:39;1999.90;;;999.90;;
43819;SDS011;67762;52.476;6.046;2023-08-31T03:06:06;1999.90;;;999.90;;
43819;SDS011;67762;52.476;6.046;2023-08-31T03:08:36;1999.90;;;999.90;;
43819;SDS011;67762;52.476;6.046;2023-08-31T03:11:05;1999.90;;;999.90;;
43819;SDS011;67762;52.476;6.046;2023-08-31T03:13:32;1999.90;;;999.90;;
43819;SDS011;67762;52.476;6.046;2023-08-31T03:15:58;1999.90;;;999.90;;
43819;SDS011;67762;52.476;6.046;2023-08-31T03:18:24;1999.90;;;999.90;;
43819;SDS011;67762;52.476;6.046;2023-08-31T03:20:51;1999.90;;;999.90;;
43819;SDS011;67762;52.476;6.046;2023-08-31T03:23:17;1999.90;;;999.90;;
43819;SDS011;67762;52.476;6.046;2023-08-31T03:25:43;1999.90;;;999.90;;
43819;SDS011;67762;52.476;6.046;2023-08-31T03:28:08;1999.90;;;999.90;;
43819;SDS011;67762;52.476;6.046;2023-08-31T03:30:35;1999.90;;;999.90;;
43819;SDS011;67762;52.476;6.046;2023-08-31T03:33:01;1999.90;;;999.90;;
43819;SDS011;67762;52.476;6.046;2023-08-31T03:35:27;1999.90;;;999.90;;
43819;SDS011;67762;52.476;6.046;2023-08-31T03:37:55;1999.90;;;999.90;;
43819;SDS011;67762;52.476;6.046;2023-08-31T03:40:21;1999.90;;;999.90;;
43819;SDS011;67762;52.476;6.046;2023-08-31T03:42:50;1999.90;;;999.90;;
43819;SDS011;67762;52.476;6.046;2023-08-31T03:45:17;1999.90;;;999.90;;
43819;SDS011;67762;52.476;6.046;2023-08-31T03:47:43;1999.90;;;999.90;;
43819;SDS011;67762;52.476;6.046;2023-08-31T03:50:09;1999.90;;;999.90;;
43819;SDS011;67762;52.476;6.046;2023-08-31T03:52:35;1999.90;;;999.90;;
43819;SDS011;67762;52.476;6.046;2023-08-31T03:55:01;1999.90;;;999.90;;
43819;SDS011;67762;52.476;6.046;2023-08-31T03:57:27;1999.90;;;999.90;;
43819;SDS011;67762;52.476;6.046;2023-08-31T03:59:57;1999.90;;;999.90;;
43819;SDS011;67762;52.476;6.046;2023-08-31T04:02:23;1999.90;;;999.90;;
43819;SDS011;67762;52.476;6.046;2023-08-31T04:04:49;1999.90;;;999.90;;
43819;SDS011;67762;52.476;6.046;2023-08-31T04:07:15;1999.90;;;999.90;;
43819;SDS011;67762;52.476;6.046;2023-08-31T04:09:41;1999.90;;;999.90;;
43819;SDS011;67762;52.476;6.046;2023-08-31T04:12:07;1999.90;;;999.90;;
43819;SDS011;67762;52.476;6.046;2023-08-31T04:14:32;1999.90;;;999.90;;
43819;SDS011;67762;52.476;6.046;2023-08-31T04:16:58;1999.90;;;999.90;;
43819;SDS011;67762;52.476;6.046;2023-08-31T04:19:24;1999.90;;;999.90;;
43819;SDS011;67762;52.476;6.046;2023-08-31T04:21:49;1999.90;;;999.90;;
43819;SDS011;67762;52.476;6.046;2023-08-31T04:24:15;1999.90;;;999.90;;
43819;SDS011;67762;52.476;6.046;2023-08-31T04:26:41;1999.90;;;999.90;;
43819;SDS011;67762;52.476;6.046;2023-08-31T04:29:08;1999.90;;;999.90;;
43819;SDS011;67762;52.476;6.046;2023-08-31T04:31:34;1999.90;;;999.90;;
43819;SDS011;67762;52.476;6.046;2023-08-31T04:34:00;1999.90;;;999.90;;
43819;SDS011;67762;52.476;6.046;2023-08-31T04:36:25;1999.90;;;999.90;;
43819;SDS011;67762;52.476;6.046;2023-08-31T04:38:51;1999.90;;;999.90;;
43819;SDS011;67762;52.476;6.046;2023-08-31T04:41:17;1999.90;;;999.90;;
43819;SDS011;67762;52.476;6.046;2023-08-31T04:43:43;1999.90;;;999.90;;
43819;SDS011;67762;52.476;6.046;2023-08-31T04:46:09;1999.90;;;999.90;;
43819;SDS011;67762;52.476;6.046;2023-08-31T04:48:35;1999.90;;;999.90;;
43819;SDS011;67762;52.476;6.046;2023-08-31T04:51:01;1999.90;;;999.90;;
43819;SDS011;67762;52.476;6.046;2023-08-31T04:53:29;1999.90;;;999.90;;
43819;SDS011;67762;52.476;6.046;2023-08-31T04:55:55;1999.90;;;999.90;;
43819;SDS011;67762;52.476;6.046;2023-08-31T04:58:21;1999.90;;;999.90;;
43819;SDS011;67762;52.476;6.046;2023-08-31T05:00:47;1999.90;;;999.90;;
43819;SDS011;67762;52.476;6.046;2023-08-31T05:03:13;1999.90;;;999.90;;
43819;SDS011;67762;52.476;6.046;2023-08-31T05:05:39;1999.90;;;999.90;;
43819;SDS011;67762;52.476;6.046;2023-08-31T05:08:07;1999.90;;;999.90;;
43819;SDS011;67762;52.476;6.046;2023-08-31T05:10:34;1999.90;;;999.90;;
43819;SDS011;67762;52.476;6.046;2023-08-31T05:12:59;1999.90;;;999.90;;
43819;SDS011;67762;52.476;6.046;2023-08-31T05:15:26;1999.90;;;999.90;;
43819;SDS011;67762;52.476;6.046;2023-08-31T05:17:55;1999.90;;;999.90;;
43819;SDS011;67762;52.476;6.046;2023-08-31T05:20:21;1999.90;;;999.90;;
43819;SDS011;67762;52.476;6.046;2023-08-31T05:22:50;1999.90;;;999.90;;
43819;SDS011;67762;52.476;6.046;2023-08-31T05:25:16;1999.90;;;999.90;;
43819;SDS011;67762;52.476;6.046;2023-08-31T05:27:42;1999.90;;;999.90;;
43819;SDS011;67762;52.476;6.046;2023-08-31T05:30:08;1999.90;;;999.90;;
43819;SDS011;67762;52.476;6.046;2023-08-31T05:32:34;1999.90;;;999.90;;
43819;SDS011;67762;52.476;6.046;2023-08-31T05:35:00;1999.90;;;999.90;;
43819;SDS011;67762;52.476;6.046;2023-08-31T05:37:26;1999.90;;;999.90;;
43819;SDS011;67762;52.476;6.046;2023-08-31T05:39:56;1999.90;;;999.90;;
43819;SDS011;67762;52.476;6.046;2023-08-31T05:42:22;1999.90;;;999.90;;
43819;SDS011;67762;52.476;6.046;2023-08-31T05:44:48;1999.90;;;999.90;;
43819;SDS011;67762;52.476;6.046;2023-08-31T05:47:13;1999.90;;;999.90;;
43819;SDS011;67762;52.476;6.046;2023-08-31T05:49:39;1999.90;;;999.90;;
43819;SDS011;67762;52.476;6.046;2023-08-31T05:52:05;1999.90;;;999.90;;
43819;SDS011;67762;52.476;6.046;2023-08-31T05:54:31;1999.90;;;999.90;;
43819;SDS011;67762;52.476;6.046;2023-08-31T05:56:56;1999.90;;;999.90;;
43819;SDS011;67762;52.476;6.046;2023-08-31T05:59:22;1999.90;;;999.90;;
43819;SDS011;67762;52.476;6.046;2023-08-31T06:01:48;1999.90;;;999.90;;
43819;SDS011;67762;52.476;6.046;2023-08-31T06:04:14;1999.90;;;999.90;;
43819;SDS011;67762;52.476;6.046;2023-08-31T06:06:40;1999.90;;;999.90;;
43819;SDS011;67762;52.476;6.046;2023-08-31T06:09:05;1999.90;;;999.90;;
43819;SDS011;67762;52.476;6.046;2023-08-31T06:11:32;1999.90;;;999.90;;
43819;SDS011;67762;52.476;6.046;2023-08-31T06:13:58;1999.90;;;999.90;;
43819;SDS011;67762;52.476;6.046;2023-08-31T06:16:24;1999.90;;;999.90;;
43819;SDS011;67762;52.476;6.046;2023-08-31T06:18:49;1999.90;;;999.90;;
43819;SDS011;67762;52.476;6.046;2023-08-31T06:21:15;1999.90;;;999.90;;
43819;SDS011;67762;52.476;6.046;2023-08-31T06:23:41;1999.90;;;999.90;;
43819;SDS011;67762;52.476;6.046;2023-08-31T06:26:06;1999.90;;;999.90;;
43819;SDS011;67762;52.476;6.046;2023-08-31T06:28:32;1999.90;;;999.90;;
43819;SDS011;67762;52.476;6.046;2023-08-31T06:30:58;1999.90;;;999.90;;
43819;SDS011;67762;52.476;6.046;2023-08-31T06:33:23;1999.90;;;999.90;;
43819;SDS011;67762;52.476;6.046;2023-08-31T06:35:49;1999.90;;;999.90;;
43819;SDS011;67762;52.476;6.046;2023-08-31T06:38:20;1999.90;;;999.90;;
43819;SDS011;67762;52.476;6.046;2023-08-31T06:40:46;1999.90;;;999.90;;
43819;SDS011;67762;52.476;6.046;2023-08-31T06:43:12;1999.90;;;999.90;;
43819;SDS011;67762;52.476;6.046;2023-08-31T06:45:38;1999.90;;;999.90;;
43819;SDS011;67762;52.476;6.046;2023-08-31T06:48:04;1999.90;;;999.90;;
43819;SDS011;67762;52.476;6.046;2023-08-31T06:50:30;1999.90;;;999.90;;
43819;SDS011;67762;52.476;6.046;2023-08-31T06:52:55;1999.90;;;999.90;;
43819;SDS011;67762;52.476;6.046;2023-08-31T06:55:21;1999.90;;;999.90;;
43819;SDS011;67762;52.476;6.046;2023-08-31T06:57:47;1999.90;;;999.90;;
43819;SDS011;67762;52.476;6.046;2023-08-31T07:00:12;1999.90;;;999.90;;
43819;SDS011;67762;52.476;6.046;2023-08-31T07:02:41;1999.90;;;999.90;;
43819;SDS011;67762;52.476;6.046;2023-08-31T07:05:07;1999.90;;;999.90;;
43819;SDS011;67762;52.476;6.046;2023-08-31T07:07:34;1999.90;;;999.90;;
43819;SDS011;67762;52.476;6.046;2023-08-31T07:10:00;1999.90;;;999.90;;
43819;SDS011;67762;52.476;6.046;2023-08-31T07:12:25;1999.90;;;999.90;;
43819;SDS011;67762;52.476;6.046;2023-08-31T07:14:51;1999.90;;;999.90;;
43819;SDS011;67762;52.476;6.046;2023-08-31T07:17:18;1999.90;;;999.90;;
43819;SDS011;67762;52.476;6.046;2023-08-31T07:19:44;1999.90;;;999.90;;
43819;SDS011;67762;52.476;6.046;2023-08-31T07:22:10;1999.90;;;999.90;;
43819;SDS011;67762;52.476;6.046;2023-08-31T07:24:37;1999.90;;;999.90;;
43819;SDS011;67762;52.476;6.046;2023-08-31T07:27:03;1999.90;;;999.90;;
43819;SDS011;67762;52.476;6.046;2023-08-31T07:29:29;1999.90;;;999.90;;
43819;SDS011;67762;52.476;6.046;2023-08-31T07:31:55;1999.90;;;999.90;;
43819;SDS011;67762;52.476;6.046;2023-08-31T07:34:21;1999.90;;;999.90;;
43819;SDS011;67762;52.476;6.046;2023-08-31T07:36:47;1999.90;;;999.90;;
43819;SDS011;67762;52.476;6.046;2023-08-31T07:39:13;1999.90;;;999.90;;
43819;SDS011;67762;52.476;6.046;2023-08-31T07:41:38;1999.90;;;999.90;;
43819;SDS011;67762;52.476;6.046;2023-08-31T07:44:05;1999.90;;;999.90;;
43819;SDS011;67762;52.476;6.046;2023-08-31T07:46:31;1999.90;;;999.90;;
43819;SDS011;67762;52.476;6.046;2023-08-31T07:48:57;1999.90;;;999.90;;
43819;SDS011;67762;52.476;6.046;2023-08-31T07:51:22;1999.90;;;999.90;;
43819;SDS011;67762;52.476;6.046;2023-08-31T07:53:49;1999.90;;;999.90;;
43819;SDS011;67762;52.476;6.046;2023-08-31T07:56:15;1999.90;;;999.90;;
43819;SDS011;67762;52.476;6.046;2023-08-31T07:58:41;1999.90;;;999.90;;
43819;SDS011;67762;52.476;6.046;2023-08-31T08:01:07;1999.90;;;999.90;;
43819;SDS011;67762;52.476;6.046;2023-08-31T08:03:33;1999.90;;;999.90;;
43819;SDS011;67762;52.476;6.046;2023-08-31T08:05:59;1999.90;;;999.90;;
43819;SDS011;67762;52.476;6.046;2023-08-31T08:08:25;1999.90;;;999.90;;
43819;SDS011;67762;52.476;6.046;2023-08-31T08:10:53;1999.90;;;999.90;;
43819;SDS011;67762;52.476;6.046;2023-08-31T08:13:20;1999.90;;;999.90;;
43819;SDS011;67762;52.476;6.046;2023-08-31T08:15:45;1999.90;;;999.90;;
43819;SDS011;67762;52.476;6.046;2023-08-31T08:18:11;1999.90;;;999.90;;
43819;SDS011;67762;52.476;6.046;2023-08-31T08:20:37;1999.90;;;999.90;;
43819;SDS011;67762;52.476;6.046;2023-08-31T08:23:04;1999.90;;;999.90;;
43819;SDS011;67762;52.476;6.046;2023-08-31T08:25:30;1999.90;;;999.90;;
43819;SDS011;67762;52.476;6.046;2023-08-31T08:27:56;1999.90;;;999.90;;
43819;SDS011;67762;52.476;6.046;2023-08-31T08:30:22;1999.90;;;999.90;;
43819;SDS011;67762;52.476;6.046;2023-08-31T08:32:47;1999.90;;;999.90;;
43819;SDS011;67762;52.476;6.046;2023-08-31T08:35:13;1999.90;;;999.90;;
43819;SDS011;67762;52.476;6.046;2023-08-31T08:37:39;1999.90;;;999.90;;
43819;SDS011;67762;52.476;6.046;2023-08-31T08:40:05;1999.90;;;999.90;;
43819;SDS011;67762;52.476;6.046;2023-08-31T08:42:31;1999.90;;;999.90;;
43819;SDS011;67762;52.476;6.046;2023-08-31T08:44:58;1999.90;;;999.90;;
43819;SDS011;67762;52.476;6.046;2023-08-31T08:47:24;1999.90;;;999.90;;
43819;SDS011;67762;52.476;6.046;2023-08-31T08:49:51;1999.90;;;999.90;;
43819;SDS011;67762;52.476;6.046;2023-08-31T08:52:18;1999.90;;;999.90;;
43819;SDS011;67762;52.476;6.046;2023-08-31T08:54:44;1999.90;;;999.90;;
43819;SDS011;67762;52.476;6.046;2023-08-31T08:57:11;1999.90;;;999.90;;
43819;SDS011;67762;52.476;6.046;2023-08-31T08:59:36;1999.90;;;999.90;;
43819;SDS011;67762;52.476;6.046;2023-08-31T09:02:02;1999.90;;;999.90;;
43819;SDS011;67762;52.476;6.046;2023-08-31T09:04:30;1999.90;;;999.90;;
43819;SDS011;67762;52.476;6.046;2023-08-31T09:06:56;1999.90;;;999.90;;
43819;SDS011;67762;52.476;6.046;2023-08-31T09:09:21;1999.90;;;999.90;;
43819;SDS011;67762;52.476;6.046;2023-08-31T09:11:48;1999.90;;;999.90;;
43819;SDS011;67762;52.476;6.046;2023-08-31T09:14:15;1999.90;;;999.90;;
43819;SDS011;67762;52.476;6.046;2023-08-31T09:16:46;1999.90;;;999.90;;
43819;SDS011;67762;52.476;6.046;2023-08-31T09:19:20;1999.90;;;999.90;;
43819;SDS011;67762;52.476;6.046;2023-08-31T09:21:51;1999.90;;;999.90;;
43819;SDS011;67762;52.476;6.046;2023-08-31T09:24:18;1999.90;;;999.90;;
43819;SDS011;67762;52.476;6.046;2023-08-31T09:26:44;1999.90;;;999.90;;
43819;SDS011;67762;52.476;6.046;2023-08-31T09:29:14;1999.90;;;999.90;;
43819;SDS011;67762;52.476;6.046;2023-08-31T09:31:43;1999.90;;;999.90;;
43819;SDS011;67762;52.476;6.046;2023-08-31T09:34:10;1999.90;;;999.90;;
43819;SDS011;67762;52.476;6.046;2023-08-31T09:36:37;1999.90;;;999.90;;
43819;SDS011;67762;52.476;6.046;2023-08-31T09:39:04;1999.90;;;999.90;;
43819;SDS011;67762;52.476;6.046;2023-08-31T09:41:31;1999.90;;;999.90;;
43819;SDS011;67762;52.476;6.046;2023-08-31T09:44:14;1999.90;;;999.90;;
43819;SDS011;67762;52.476;6.046;2023-08-31T09:46:41;1999.90;;;999.90;;
43819;SDS011;67762;52.476;6.046;2023-08-31T09:49:08;1999.90;;;999.90;;
43819;SDS011;67762;52.476;6.046;2023-08-31T09:51:35;1999.90;;;999.90;;
43819;SDS011;67762;52.476;6.046;2023-08-31T09:54:06;1999.90;;;999.90;;
43819;SDS011;67762;52.476;6.046;2023-08-31T09:56:35;1999.90;;;999.90;;
43819;SDS011;67762;52.476;6.046;2023-08-31T09:59:01;1999.90;;;999.90;;
43819;SDS011;67762;52.476;6.046;2023-08-31T10:01:28;1535.05;;;782.90;;
43819;SDS011;67762;52.476;6.046;2023-08-31T10:03:54;1999.90;;;999.90;;
43819;SDS011;67762;52.476;6.046;2023-08-31T10:06:21;1999.90;;;999.90;;
43819;SDS011;67762;52.476;6.046;2023-08-31T10:08:47;1999.90;;;999.90;;
43819;SDS011;67762;52.476;6.046;2023-08-31T10:11:14;1999.90;;;999.90;;
43819;SDS011;67762;52.476;6.046;2023-08-31T10:13:41;1999.90;;;999.90;;
43819;SDS011;67762;52.476;6.046;2023-08-31T10:16:08;1999.90;;;999.90;;
43819;SDS011;67762;52.476;6.046;2023-08-31T10:18:34;1999.90;;;999.90;;
43819;SDS011;67762;52.476;6.046;2023-08-31T10:21:02;1999.90;;;999.90;;
43819;SDS011;67762;52.476;6.046;2023-08-31T10:23:29;1999.90;;;999.90;;
43819;SDS011;67762;52.476;6.046;2023-08-31T10:28:21;1517.45;;;766.42;;
43819;SDS011;67762;52.476;6.046;2023-08-31T10:31:21;1999.90;;;999.90;;
43819;SDS011;67762;52.476;6.046;2023-08-31T10:33:47;1618.32;;;858.70;;
43819;SDS011;67762;52.476;6.046;2023-08-31T10:36:42;1540.57;;;788.05;;
43819;SDS011;67762;52.476;6.046;2023-08-31T10:39:14;1999.90;;;999.90;;
43819;SDS011;67762;52.476;6.046;2023-08-31T10:41:41;1999.90;;;999.90;;
43819;SDS011;67762;52.476;6.046;2023-08-31T10:44:20;1999.90;;;999.90;;
43819;SDS011;67762;52.476;6.046;2023-08-31T10:46:47;1999.90;;;999.90;;
43819;SDS011;67762;52.476;6.046;2023-08-31T10:49:14;1999.90;;;999.90;;
43819;SDS011;67762;52.476;6.046;2023-08-31T10:51:42;1999.90;;;999.90;;
43819;SDS011;67762;52.476;6.046;2023-08-31T10:59:42;175.05;;;166.05;;
43819;SDS011;67762;52.476;6.046;2023-08-31T11:02:36;1999.90;;;999.90;;
43819;SDS011;67762;52.476;6.046;2023-08-31T11:05:05;1999.90;;;999.90;;
43819;SDS011;67762;52.476;6.046;2023-08-31T11:07:33;1999.90;;;999.90;;
43819;SDS011;67762;52.476;6.046;2023-08-31T11:12:39;1999.90;;;999.90;;
43819;SDS011;67762;52.476;6.046;2023-08-31T11:15:05;1999.90;;;999.90;;
43819;SDS011;67762;52.476;6.046;2023-08-31T11:17:31;1999.90;;;999.90;;
43819;SDS011;67762;52.476;6.046;2023-08-31T11:19:58;1999.90;;;999.90;;
43819;SDS011;67762;52.476;6.046;2023-08-31T11:22:24;1999.90;;;999.90;;
43819;SDS011;67762;52.476;6.046;2023-08-31T11:24:51;1999.90;;;999.90;;
43819;SDS011;67762;52.476;6.046;2023-08-31T11:27:20;1999.90;;;999.90;;
43819;SDS011;67762;52.476;6.046;2023-08-31T11:29:46;1999.90;;;999.90;;
43819;SDS011;67762;52.476;6.046;2023-08-31T11:32:12;1999.90;;;999.90;;
43819;SDS011;67762;52.476;6.046;2023-08-31T11:34:42;1999.90;;;999.90;;
43819;SDS011;67762;52.476;6.046;2023-08-31T11:37:09;1999.90;;;999.90;;
43819;SDS011;67762;52.476;6.046;2023-08-31T11:39:36;1999.90;;;999.90;;
43819;SDS011;67762;52.476;6.046;2023-08-31T11:42:03;1999.90;;;999.90;;
43819;SDS011;67762;52.476;6.046;2023-08-31T11:44:29;1037.57;;;534.83;;
43819;SDS011;67762;52.476;6.046;2023-08-31T11:46:55;1999.90;;;999.90;;
43819;SDS011;67762;52.476;6.046;2023-08-31T11:49:21;1999.90;;;999.90;;
43819;SDS011;67762;52.476;6.046;2023-08-31T11:51:47;1524.10;;;772.78;;
43819;SDS011;67762;52.476;6.046;2023-08-31T11:54:17;1021.55;;;520.47;;
43819;SDS011;67762;52.476;6.046;2023-08-31T11:56:43;1999.90;;;999.90;;
43819;SDS011;67762;52.476;6.046;2023-08-31T11:59:16;1999.90;;;999.90;;
43819;SDS011;67762;52.476;6.046;2023-08-31T12:01:46;1999.90;;;999.90;;
43819;SDS011;67762;52.476;6.046;2023-08-31T12:04:14;1999.90;;;999.90;;
43819;SDS011;67762;52.476;6.046;2023-08-31T12:06:41;1999.90;;;999.90;;
43819;SDS011;67762;52.476;6.046;2023-08-31T12:09:08;1999.90;;;999.90;;
43819;SDS011;67762;52.476;6.046;2023-08-31T12:11:34;1999.90;;;999.90;;
43819;SDS011;67762;52.476;6.046;2023-08-31T12:14:01;1999.90;;;999.90;;
43819;SDS011;67762;52.476;6.046;2023-08-31T12:16:33;1999.90;;;999.90;;
43819;SDS011;67762;52.476;6.046;2023-08-31T12:19:03;1999.90;;;999.90;;
43819;SDS011;67762;52.476;6.046;2023-08-31T12:21:30;1999.90;;;999.90;;
43819;SDS011;67762;52.476;6.046;2023-08-31T12:23:59;1999.90;;;999.90;;
43819;SDS011;67762;52.476;6.046;2023-08-31T12:26:28;1999.90;;;999.90;;
43819;SDS011;67762;52.476;6.046;2023-08-31T12:28:54;1999.90;;;999.90;;
43819;SDS011;67762;52.476;6.046;2023-08-31T12:31:22;1999.90;;;999.90;;
43819;SDS011;67762;52.476;6.046;2023-08-31T12:33:48;1999.90;;;999.90;;
43819;SDS011;67762;52.476;6.046;2023-08-31T12:36:14;1999.90;;;999.90;;
43819;SDS011;67762;52.476;6.046;2023-08-31T12:38:40;1999.90;;;999.90;;
43819;SDS011;67762;52.476;6.046;2023-08-31T12:41:06;1999.90;;;999.90;;
43819;SDS011;67762;52.476;6.046;2023-08-31T12:43:32;1999.90;;;999.90;;
43819;SDS011;67762;52.476;6.046;2023-08-31T12:45:59;1999.90;;;999.90;;
43819;SDS011;67762;52.476;6.046;2023-08-31T12:48:25;1999.90;;;999.90;;
43819;SDS011;67762;52.476;6.046;2023-08-31T12:50:51;1999.90;;;999.90;;
43819;SDS011;67762;52.476;6.046;2023-08-31T12:53:20;1999.90;;;999.90;;
43819;SDS011;67762;52.476;6.046;2023-08-31T12:55:47;1999.90;;;999.90;;
43819;SDS011;67762;52.476;6.046;2023-08-31T12:58:13;1999.90;;;999.90;;
43819;SDS011;67762;52.476;6.046;2023-08-31T13:00:38;1999.90;;;999.90;;
43819;SDS011;67762;52.476;6.046;2023-08-31T13:03:04;1999.90;;;999.90;;
43819;SDS011;67762;52.476;6.046;2023-08-31T13:05:32;1999.90;;;999.90;;
43819;SDS011;67762;52.476;6.046;2023-08-31T13:07:58;1999.90;;;999.90;;
43819;SDS011;67762;52.476;6.046;2023-08-31T13:10:23;1999.90;;;999.90;;
43819;SDS011;67762;52.476;6.046;2023-08-31T13:12:49;1999.90;;;999.90;;
43819;SDS011;67762;52.476;6.046;2023-08-31T13:15:15;1999.90;;;999.90;;
43819;SDS011;67762;52.476;6.046;2023-08-31T13:17:41;655.33;;;395.85;;
43819;SDS011;67762;52.476;6.046;2023-08-31T13:20:06;224.05;;;212.35;;
43819;SDS011;67762;52.476;6.046;2023-08-31T13:22:33;208.35;;;197.35;;
43819;SDS011;67762;52.476;6.046;2023-08-31T13:24:59;103.53;;;97.97;;
43819;SDS011;67762;52.476;6.046;2023-08-31T13:27:25;238.85;;;226.65;;
43819;SDS011;67762;52.476;6.046;2023-08-31T13:29:51;1999.90;;;999.90;;
43819;SDS011;67762;52.476;6.046;2023-08-31T13:32:17;147.77;;;139.57;;
43819;SDS011;67762;52.476;6.046;2023-08-31T13:34:42;254.43;;;241.45;;
43819;SDS011;67762;52.476;6.046;2023-08-31T13:37:08;1046.07;;;543.38;;
43819;SDS011;67762;52.476;6.046;2023-08-31T13:39:34;236.85;;;223.45;;
43819;SDS011;67762;52.476;6.046;2023-08-31T13:42:02;188.52;;;178.95;;
43819;SDS011;67762;52.476;6.046;2023-08-31T13:44:29;98.45;;;93.15;;
43819;SDS011;67762;52.476;6.046;2023-08-31T13:46:56;248.50;;;235.43;;
43819;SDS011;67762;52.476;6.046;2023-08-31T13:49:22;201.52;;;191.07;;
43819;SDS011;67762;52.476;6.046;2023-08-31T13:51:47;231.63;;;218.95;;
43819;SDS011;67762;52.476;6.046;2023-08-31T13:54:13;205.18;;;193.45;;
43819;SDS011;67762;52.476;6.046;2023-08-31T13:56:39;189.98;;;179.88;;
43819;SDS011;67762;52.476;6.046;2023-08-31T13:59:04;241.88;;;227.45;;
43819;SDS011;67762;52.476;6.046;2023-08-31T14:01:30;156.07;;;147.75;;
43819;SDS011;67762;52.476;6.046;2023-08-31T14:03:56;365.85;;;342.65;;
43819;SDS011;67762;52.476;6.046;2023-08-31T14:06:22;323.02;;;302.77;;
43819;SDS011;67762;52.476;6.046;2023-08-31T14:08:48;299.45;;;283.38;;